Time;durP1;ratioP1;P1;durP2;ratioP2;P2;SDS_P1;SDS_P2;PMS_P1;PMS_P2;Temp;Humidity;BMP_temperature;BMP_pressure;BME280_temperature;BME280_humidity;BME280_pressure;Samples;Min_cycle;Max_cycle;Signal;HPM_P1;HPM_P2
2022/05/16 00:00:12;;;;;;;20.07;7.20;;;;;;;;;;5039904;28;20088;-58
2022/05/16 00:02:38;;;;;;;18.57;6.20;;;;;;;;;;5031346;28;20557;-58
2022/05/16 00:05:04;;;;;;;18.20;6.17;;;;;;;;;;5031620;28;20045;-59
2022/05/16 00:07:30;;;;;;;15.67;6.80;;;;;;;;;;5031073;28;20044;-59
2022/05/16 00:09:56;;;;;;;15.80;6.90;;;;;;;;;;5031508;28;20041;-58
2022/05/16 00:12:22;;;;;;;14.53;5.83;;;;;;;;;;5048657;28;20048;-58
2022/05/16 00:14:48;;;;;;;18.70;6.03;;;;;;;;;;5050984;28;20045;-59
2022/05/16 00:17:15;;;;;;;16.17;6.97;;;;;;;;;;5050804;28;20531;-58
2022/05/16 00:19:41;;;;;;;16.57;6.10;;;;;;;;;;5049109;28;20045;-58
2022/05/16 00:22:07;;;;;;;14.70;6.37;;;;;;;;;;5049376;28;20039;-59
2022/05/16 00:24:34;;;;;;;19.53;6.40;;;;;;;;;;5047678;28;20099;-58
2022/05/16 00:27:00;;;;;;;17.67;6.20;;;;;;;;;;5030945;28;20085;-58
2022/05/16 00:29:26;;;;;;;13.00;5.77;;;;;;;;;;5031227;28;20102;-58
2022/05/16 00:31:54;;;;;;;14.73;6.17;;;;;;;;;;5030997;28;20049;-59
2022/05/16 00:34:20;;;;;;;17.10;6.47;;;;;;;;;;5038245;28;20122;-59
2022/05/16 00:36:47;;;;;;;14.87;6.07;;;;;;;;;;5050356;28;20052;-59
2022/05/16 00:39:18;;;;;;;16.23;6.07;;;;;;;;;;5050709;28;20175;-59
2022/05/16 00:41:44;;;;;;;17.73;7.03;;;;;;;;;;5050528;28;20053;-59
2022/05/16 00:44:11;;;;;;;16.83;5.57;;;;;;;;;;5050137;28;20041;-59
2022/05/16 00:46:37;;;;;;;14.00;6.30;;;;;;;;;;5038892;28;20125;-59
2022/05/16 00:49:05;;;;;;;10.37;5.77;;;;;;;;;;5046909;28;20037;-59
2022/05/16 00:51:33;;;;;;;14.43;5.50;;;;;;;;;;5049964;28;20410;-59
2022/05/16 00:54:08;;;;;;;11.53;5.73;;;;;;;;;;5049560;28;20487;-59
2022/05/16 00:56:34;;;;;;;14.67;5.77;;;;;;;;;;5050238;28;20396;-58
2022/05/16 00:59:01;;;;;;;12.23;6.10;;;;;;;;;;5050123;28;20048;-58
2022/05/16 01:06:57;;;;;;;12.10;5.10;;;;;;;;;;5030334;28;20404;-59
2022/05/16 01:09:23;;;;;;;13.70;5.83;;;;;;;;;;5030255;28;20539;-59
2022/05/16 01:11:50;;;;;;;16.00;5.63;;;;;;;;;;5030198;28;20045;-58
2022/05/16 01:14:35;;;;;;;13.80;5.57;;;;;;;;;;5029522;28;20046;-58
2022/05/16 01:17:01;;;;;;;14.90;6.17;;;;;;;;;;5029918;28;20063;-59
2022/05/16 01:19:27;;;;;;;12.70;5.50;;;;;;;;;;5030165;28;20079;-58
2022/05/16 01:21:53;;;;;;;17.53;6.23;;;;;;;;;;5047366;28;20123;-59
2022/05/16 01:24:19;;;;;;;14.00;6.77;;;;;;;;;;5047024;28;20511;-59
2022/05/16 01:26:45;;;;;;;13.97;5.60;;;;;;;;;;5049536;28;20164;-58
2022/05/16 01:29:11;;;;;;;14.70;5.93;;;;;;;;;;5049628;28;20495;-59
2022/05/16 01:31:37;;;;;;;13.07;5.00;;;;;;;;;;5049396;28;20049;-59
2022/05/16 01:34:04;;;;;;;12.70;6.27;;;;;;;;;;5049412;28;20045;-59
2022/05/16 01:36:30;;;;;;;14.23;5.70;;;;;;;;;;5049382;28;20131;-59
2022/05/16 01:38:56;;;;;;;15.97;5.40;;;;;;;;;;5049029;28;20045;-59
2022/05/16 01:41:24;;;;;;;13.60;5.87;;;;;;;;;;5048275;28;20033;-59
2022/05/16 01:43:54;;;;;;;13.90;4.70;;;;;;;;;;5049263;28;20067;-59
2022/05/16 01:46:22;;;;;;;12.30;5.73;;;;;;;;;;5047467;28;20070;-58
2022/05/16 01:48:48;;;;;;;13.47;5.93;;;;;;;;;;5048042;28;20561;-59
2022/05/16 01:51:14;;;;;;;11.93;5.50;;;;;;;;;;5048990;28;20053;-58
2022/05/16 01:53:42;;;;;;;13.80;5.40;;;;;;;;;;5031692;28;20478;-59
2022/05/16 01:56:08;;;;;;;12.20;5.77;;;;;;;;;;5029004;28;20073;-59
2022/05/16 01:58:34;;;;;;;14.50;6.37;;;;;;;;;;5029116;28;20506;-58
2022/05/16 02:01:02;;;;;;;17.30;5.77;;;;;;;;;;5028958;28;20483;-58
2022/05/16 02:03:28;;;;;;;15.97;5.77;;;;;;;;;;5041460;28;20119;-59
2022/05/16 02:05:54;;;;;;;13.67;4.97;;;;;;;;;;5048806;28;20469;-59
2022/05/16 02:08:20;;;;;;;15.30;4.60;;;;;;;;;;5048965;28;20139;-59
2022/05/16 02:10:46;;;;;;;16.10;5.27;;;;;;;;;;5049084;28;20080;-59
2022/05/16 02:13:12;;;;;;;14.27;4.93;;;;;;;;;;5047551;28;20048;-59
2022/05/16 02:15:39;;;;;;;16.57;5.07;;;;;;;;;;5048722;28;20049;-59
2022/05/16 02:18:06;;;;;;;12.83;5.07;;;;;;;;;;5048913;28;20055;-59
2022/05/16 02:20:32;;;;;;;16.40;5.00;;;;;;;;;;5049383;28;20152;-59
2022/05/16 02:25:47;;;;;;;13.40;5.33;;;;;;;;;;5048943;28;20387;-58
2022/05/16 02:28:14;;;;;;;15.97;5.30;;;;;;;;;;5048046;28;20049;-59
2022/05/16 02:30:41;;;;;;;16.33;4.93;;;;;;;;;;5048666;28;20061;-59
2022/05/16 02:33:08;;;;;;;10.73;5.37;;;;;;;;;;5048761;28;20053;-59
2022/05/16 02:35:34;;;;;;;17.20;5.50;;;;;;;;;;5048679;28;20048;-59
2022/05/16 02:38:01;;;;;;;17.40;5.63;;;;;;;;;;5047726;28;20049;-59
2022/05/16 02:40:27;;;;;;;15.70;4.60;;;;;;;;;;5048789;28;20067;-59
2022/05/16 02:42:53;;;;;;;12.93;4.80;;;;;;;;;;5048758;28;20045;-59
2022/05/16 02:45:19;;;;;;;16.30;5.67;;;;;;;;;;5048416;28;20045;-59
2022/05/16 02:47:46;;;;;;;8.60;4.80;;;;;;;;;;5047695;28;20041;-59
2022/05/16 02:50:12;;;;;;;17.00;4.87;;;;;;;;;;5048559;28;20059;-59
2022/05/16 02:52:38;;;;;;;18.73;5.57;;;;;;;;;;5039826;28;20068;-59
2022/05/16 02:55:04;;;;;;;11.13;4.30;;;;;;;;;;5028312;28;20045;-59
2022/05/16 02:57:31;;;;;;;14.60;4.43;;;;;;;;;;5029117;28;20100;-59
2022/05/16 02:59:57;;;;;;;18.77;5.47;;;;;;;;;;5030002;28;20042;-59
2022/05/16 03:02:23;;;;;;;16.00;4.97;;;;;;;;;;5032711;28;20423;-59
2022/05/16 03:04:49;;;;;;;16.97;4.47;;;;;;;;;;5032189;28;20092;-59
2022/05/16 03:07:15;;;;;;;18.27;5.10;;;;;;;;;;5031400;28;20464;-59
2022/05/16 03:09:41;;;;;;;12.30;4.90;;;;;;;;;;5032715;28;20056;-59
2022/05/16 03:12:07;;;;;;;10.87;4.70;;;;;;;;;;5032305;28;20140;-59
2022/05/16 03:14:35;;;;;;;17.77;5.43;;;;;;;;;;5032132;28;20045;-59
2022/05/16 03:17:02;;;;;;;15.83;4.80;;;;;;;;;;5032526;28;20573;-59
2022/05/16 03:19:28;;;;;;;9.13;5.00;;;;;;;;;;5032330;28;20529;-59
2022/05/16 03:21:54;;;;;;;11.63;4.30;;;;;;;;;;5043268;28;20156;-59
2022/05/16 03:24:20;;;;;;;16.97;4.90;;;;;;;;;;5032119;28;20049;-59
2022/05/16 03:26:46;;;;;;;18.00;4.83;;;;;;;;;;5032053;28;20041;-59
2022/05/16 03:29:13;;;;;;;14.73;5.33;;;;;;;;;;5032149;28;20045;-59
2022/05/16 03:31:40;;;;;;;10.30;4.30;;;;;;;;;;5031841;28;20088;-59
2022/05/16 03:34:07;;;;;;;14.63;5.50;;;;;;;;;;5031849;28;20047;-59
2022/05/16 03:36:33;;;;;;;13.17;4.90;;;;;;;;;;5032262;28;20056;-59
2022/05/16 03:41:44;;;;;;;12.80;4.70;;;;;;;;;;5031895;28;20764;-59
2022/05/16 03:44:10;;;;;;;13.40;4.20;;;;;;;;;;5031304;28;20068;-59
2022/05/16 03:46:37;;;;;;;13.13;3.63;;;;;;;;;;5032676;28;20045;-59
2022/05/16 03:49:03;;;;;;;11.47;4.53;;;;;;;;;;5031314;28;20045;-59
2022/05/16 03:51:30;;;;;;;11.50;4.93;;;;;;;;;;5030811;28;20492;-59
2022/05/16 03:53:56;;;;;;;6.87;3.60;;;;;;;;;;5048417;28;20041;-59
2022/05/16 03:56:23;;;;;;;15.40;5.17;;;;;;;;;;5050245;28;20071;-59
2022/05/16 03:58:49;;;;;;;11.30;5.00;;;;;;;;;;5051034;28;20044;-59
2022/05/16 04:01:16;;;;;;;13.17;4.10;;;;;;;;;;5048154;28;20091;-59
2022/05/16 04:03:42;;;;;;;10.70;4.03;;;;;;;;;;5038626;28;20037;-59
2022/05/16 04:06:09;;;;;;;12.07;4.03;;;;;;;;;;5040883;28;20073;-59
2022/05/16 04:08:35;;;;;;;12.80;5.07;;;;;;;;;;5039116;28;20034;-59
2022/05/16 04:11:01;;;;;;;11.83;4.40;;;;;;;;;;5040992;28;20061;-59
2022/05/16 04:13:28;;;;;;;9.67;4.13;;;;;;;;;;5039022;28;20045;-59
2022/05/16 04:15:54;;;;;;;11.47;3.93;;;;;;;;;;5040722;28;20037;-59
2022/05/16 04:18:20;;;;;;;9.63;4.60;;;;;;;;;;5038973;28;20049;-59
2022/05/16 04:20:46;;;;;;;11.97;3.70;;;;;;;;;;5038639;28;20049;-59
2022/05/16 04:23:13;;;;;;;9.50;3.77;;;;;;;;;;5046574;28;20102;-59
2022/05/16 04:25:39;;;;;;;12.83;4.40;;;;;;;;;;5050764;28;20045;-59
2022/05/16 04:28:09;;;;;;;9.40;3.90;;;;;;;;;;5050577;28;20415;-59
2022/05/16 04:30:36;;;;;;;18.57;4.23;;;;;;;;;;5050427;28;20123;-59
2022/05/16 04:33:02;;;;;;;10.60;4.10;;;;;;;;;;5049903;28;20337;-59
2022/05/16 04:35:28;;;;;;;13.77;4.40;;;;;;;;;;5049272;28;20186;-59
2022/05/16 04:37:54;;;;;;;17.00;4.97;;;;;;;;;;5050287;28;20124;-59
2022/05/16 04:40:20;;;;;;;14.53;4.50;;;;;;;;;;5050232;28;20045;-59
2022/05/16 04:42:46;;;;;;;12.93;4.10;;;;;;;;;;5050129;28;20037;-59
2022/05/16 04:45:21;;;;;;;11.73;4.53;;;;;;;;;;5049840;28;20045;-59
2022/05/16 04:47:49;;;;;;;14.27;5.13;;;;;;;;;;5040990;28;20060;-59
2022/05/16 04:50:16;;;;;;;13.60;4.07;;;;;;;;;;5029505;28;20492;-59
2022/05/16 04:52:42;;;;;;;14.73;5.60;;;;;;;;;;5028867;28;20041;-59
2022/05/16 04:55:09;;;;;;;12.10;5.00;;;;;;;;;;5027592;28;20187;-59
2022/05/16 04:57:35;;;;;;;11.47;3.97;;;;;;;;;;5028446;28;20045;-59
2022/05/16 05:00:01;;;;;;;13.03;4.17;;;;;;;;;;5040995;28;20033;-59
2022/05/16 05:02:28;;;;;;;6.80;3.67;;;;;;;;;;5048230;28;20052;-59
2022/05/16 05:04:54;;;;;;;14.90;4.33;;;;;;;;;;5053417;28;20044;-59
2022/05/16 05:07:20;;;;;;;9.97;3.53;;;;;;;;;;5051427;28;20186;-59
2022/05/16 05:15:17;;;;;;;9.57;3.57;;;;;;;;;;5046184;28;20045;-59
2022/05/16 05:17:43;;;;;;;17.63;3.93;;;;;;;;;;5047218;28;20116;-59
2022/05/16 05:20:13;;;;;;;11.17;4.63;;;;;;;;;;5049199;28;20041;-59
2022/05/16 05:22:43;;;;;;;11.50;3.83;;;;;;;;;;5047519;28;20047;-59
2022/05/16 05:25:10;;;;;;;12.53;4.43;;;;;;;;;;5069455;28;20040;-59
2022/05/16 05:27:36;;;;;;;15.20;4.37;;;;;;;;;;5066958;28;20158;-59
2022/05/16 05:30:02;;;;;;;12.33;3.47;;;;;;;;;;5045690;28;20136;-59
2022/05/16 05:32:28;;;;;;;14.20;3.27;;;;;;;;;;5043964;28;20049;-59
2022/05/16 05:34:54;;;;;;;13.57;4.43;;;;;;;;;;5040664;28;20048;-59
2022/05/16 05:37:20;;;;;;;11.30;4.17;;;;;;;;;;5048835;28;20056;-59
2022/05/16 05:39:46;;;;;;;10.13;3.73;;;;;;;;;;5059425;28;20040;-59
2022/05/16 05:42:12;;;;;;;13.23;4.23;;;;;;;;;;5058057;28;20037;-59
2022/05/16 05:44:38;;;;;;;16.30;4.83;;;;;;;;;;5050344;28;21107;-59
2022/05/16 05:47:04;;;;;;;13.30;5.30;;;;;;;;;;5068710;28;20139;-59
2022/05/16 05:49:30;;;;;;;13.20;3.97;;;;;;;;;;5049947;28;20211;-63
2022/05/16 05:51:57;;;;;;;12.37;4.60;;;;;;;;;;5048247;28;20053;-62
2022/05/16 05:54:23;;;;;;;15.20;3.90;;;;;;;;;;5042595;28;20578;-59
2022/05/16 05:56:49;;;;;;;10.90;3.80;;;;;;;;;;5046445;28;20415;-59
2022/05/16 05:59:15;;;;;;;11.60;4.10;;;;;;;;;;5068520;28;20044;-59
2022/05/16 06:01:41;;;;;;;11.63;3.80;;;;;;;;;;5051201;28;20049;-59
2022/05/16 06:04:07;;;;;;;13.87;3.57;;;;;;;;;;5047859;28;20495;-59
2022/05/16 06:06:33;;;;;;;8.93;3.07;;;;;;;;;;5051414;28;20052;-59
2022/05/16 06:08:59;;;;;;;15.53;3.77;;;;;;;;;;5068818;28;20036;-59
2022/05/16 06:11:28;;;;;;;12.10;4.47;;;;;;;;;;5040296;28;20423;-59
2022/05/16 06:13:58;;;;;;;7.80;3.40;;;;;;;;;;5042692;28;20041;-59
2022/05/16 06:16:24;;;;;;;9.83;3.73;;;;;;;;;;5047123;28;20411;-59
2022/05/16 06:18:50;;;;;;;10.77;3.43;;;;;;;;;;5051126;28;20048;-59
2022/05/16 06:21:16;;;;;;;14.20;3.90;;;;;;;;;;5068518;28;20311;-59
2022/05/16 06:23:42;;;;;;;11.40;3.27;;;;;;;;;;5066455;28;20052;-59
2022/05/16 06:26:08;;;;;;;14.57;4.10;;;;;;;;;;5054921;28;20403;-59
2022/05/16 06:28:37;;;;;;;15.53;4.00;;;;;;;;;;5036352;28;20041;-59
2022/05/16 06:31:04;;;;;;;11.50;3.83;;;;;;;;;;5040360;28;20144;-59
2022/05/16 06:33:30;;;;;;;12.83;3.33;;;;;;;;;;5052465;28;20114;-59
2022/05/16 06:35:56;;;;;;;14.70;3.67;;;;;;;;;;5027897;28;20535;-59
2022/05/16 06:38:25;;;;;;;12.70;3.27;;;;;;;;;;5048562;28;20055;-60
2022/05/16 06:40:51;;;;;;;10.90;4.07;;;;;;;;;;5062343;28;20517;-59
2022/05/16 06:43:18;;;;;;;12.90;3.90;;;;;;;;;;5064927;28;20036;-60
2022/05/16 06:45:44;;;;;;;12.23;4.60;;;;;;;;;;5056763;28;20446;-60
2022/05/16 06:48:11;;;;;;;11.30;3.77;;;;;;;;;;5046248;28;20144;-59
2022/05/16 06:50:37;;;;;;;8.87;3.47;;;;;;;;;;5047172;28;20045;-59
2022/05/16 06:53:03;;;;;;;9.97;2.97;;;;;;;;;;5045257;28;20450;-59
2022/05/16 06:55:29;;;;;;;10.50;3.23;;;;;;;;;;5035116;28;20435;-60
2022/05/16 06:57:56;;;;;;;11.33;3.63;;;;;;;;;;5046100;28;20072;-59
2022/05/16 07:00:22;;;;;;;12.93;4.43;;;;;;;;;;5048261;28;20155;-59
2022/05/16 07:02:48;;;;;;;9.43;3.00;;;;;;;;;;5059138;28;20045;-59
2022/05/16 07:05:15;;;;;;;11.13;2.77;;;;;;;;;;5041084;28;20121;-59
2022/05/16 07:07:41;;;;;;;13.33;3.40;;;;;;;;;;5047472;28;20045;-60
2022/05/16 07:10:07;;;;;;;17.97;4.33;;;;;;;;;;5046220;28;20045;-60
2022/05/16 07:12:33;;;;;;;11.23;3.60;;;;;;;;;;5044466;28;20064;-59
2022/05/16 07:14:59;;;;;;;11.73;3.20;;;;;;;;;;5058732;28;20139;-59
2022/05/16 07:17:25;;;;;;;9.17;2.90;;;;;;;;;;5055624;28;20136;-59
2022/05/16 07:19:51;;;;;;;13.17;3.97;;;;;;;;;;5047174;28;20164;-63
2022/05/16 07:22:22;;;;;;;12.07;3.00;;;;;;;;;;5047946;28;20642;-60
2022/05/16 07:24:48;;;;;;;13.97;3.30;;;;;;;;;;5066142;28;20133;-59
2022/05/16 07:29:59;;;;;;;11.43;3.57;;;;;;;;;;5064954;28;20052;-59
2022/05/16 07:32:33;;;;;;;9.80;3.07;;;;;;;;;;5057991;28;20057;-59
2022/05/16 07:35:01;;;;;;;8.17;3.10;;;;;;;;;;5041014;28;20537;-59
2022/05/16 07:37:27;;;;;;;10.93;3.53;;;;;;;;;;5066698;28;20052;-59
2022/05/16 07:39:53;;;;;;;8.67;3.57;;;;;;;;;;5067023;28;20418;-59
2022/05/16 07:42:19;;;;;;;14.10;3.50;;;;;;;;;;5066101;28;20044;-59
2022/05/16 07:44:45;;;;;;;8.20;2.63;;;;;;;;;;5062878;28;20109;-59
2022/05/16 07:47:11;;;;;;;11.23;3.50;;;;;;;;;;5049915;28;20049;-59
2022/05/16 07:49:37;;;;;;;12.23;2.80;;;;;;;;;;5044552;28;20056;-59
2022/05/16 07:52:03;;;;;;;8.50;3.43;;;;;;;;;;5051920;28;20662;-59
2022/05/16 07:54:29;;;;;;;16.20;3.20;;;;;;;;;;5049034;28;20044;-60
2022/05/16 07:56:55;;;;;;;9.63;2.87;;;;;;;;;;5053855;28;20040;-59
2022/05/16 07:59:21;;;;;;;11.63;4.00;;;;;;;;;;5069904;28;20040;-60
2022/05/16 08:01:47;;;;;;;18.40;4.63;;;;;;;;;;5036234;28;20049;-59
2022/05/16 08:04:14;;;;;;;18.60;3.37;;;;;;;;;;5063041;28;20849;-60
2022/05/16 08:06:40;;;;;;;14.83;3.77;;;;;;;;;;5061439;28;20451;-59
2022/05/16 08:11:51;;;;;;;16.70;3.50;;;;;;;;;;5030221;28;20053;-60
2022/05/16 08:14:17;;;;;;;9.17;3.20;;;;;;;;;;5043196;28;20055;-59
2022/05/16 08:16:43;;;;;;;9.23;3.37;;;;;;;;;;5051216;28;20118;-60
2022/05/16 08:19:09;;;;;;;9.97;3.27;;;;;;;;;;5049038;28;20081;-60
2022/05/16 08:21:36;;;;;;;9.70;3.00;;;;;;;;;;5050812;28;20391;-60
2022/05/16 08:24:02;;;;;;;9.40;2.70;;;;;;;;;;5050480;28;20555;-60
2022/05/16 08:26:29;;;;;;;11.47;4.13;;;;;;;;;;5050756;28;20048;-60
2022/05/16 08:28:55;;;;;;;12.00;3.30;;;;;;;;;;5050458;28;20037;-60
2022/05/16 08:31:21;;;;;;;9.70;3.03;;;;;;;;;;5050019;28;20106;-60
2022/05/16 08:33:47;;;;;;;12.40;3.13;;;;;;;;;;5047910;28;20057;-60
2022/05/16 08:41:56;;;;;;;14.25;3.45;;;;;;;;;;5050355;28;20053;-60
2022/05/16 08:44:31;;;;;;;11.40;2.80;;;;;;;;;;5050065;28;20128;-60
2022/05/16 08:47:01;;;;;;;11.13;3.53;;;;;;;;;;5048589;28;20163;-60
2022/05/16 08:49:39;;;;;;;8.88;3.05;;;;;;;;;;5029812;28;20041;-60
2022/05/16 08:52:08;;;;;;;10.63;3.45;;;;;;;;;;5029909;28;20068;-60
2022/05/16 08:54:45;;;;;;;13.45;3.20;;;;;;;;;;5030247;28;20452;-60
2022/05/16 08:57:12;;;;;;;13.23;3.25;;;;;;;;;;5028922;28;20442;-60
2022/05/16 08:59:41;;;;;;;9.65;2.97;;;;;;;;;;5032318;28;20499;-60
2022/05/16 09:02:24;;;;;;;10.48;3.30;;;;;;;;;;5049391;28;20041;-60
2022/05/16 09:04:56;;;;;;;8.23;3.10;;;;;;;;;;5048143;28;20144;-60
2022/05/16 09:07:26;;;;;;;10.05;3.38;;;;;;;;;;5049756;28;20376;-60
2022/05/16 09:10:05;;;;;;;8.60;3.85;;;;;;;;;;5047637;28;20059;-62
2022/05/16 09:12:40;;;;;;;8.90;3.30;;;;;;;;;;5047723;28;20052;-60
2022/05/16 09:15:27;;;;;;;9.07;2.95;;;;;;;;;;5049312;28;20033;-60
2022/05/16 09:17:53;;;;;;;13.65;3.38;;;;;;;;;;5049496;28;20047;-60
2022/05/16 09:20:25;;;;;;;10.65;3.35;;;;;;;;;;5049541;28;20124;-60
2022/05/16 09:23:00;;;;;;;10.55;3.10;;;;;;;;;;5049465;28;20128;-60
2022/05/16 09:25:33;;;;;;;12.20;3.70;;;;;;;;;;5049410;28;20419;-60
2022/05/16 09:30:46;;;;;;;9.70;3.28;;;;;;;;;;5035717;28;19964;-60
2022/05/16 09:33:15;;;;;;;8.15;3.20;;;;;;;;;;5029160;28;20136;-60
2022/05/16 09:35:46;;;;;;;8.20;2.70;;;;;;;;;;5028908;28;20530;-60
2022/05/16 09:38:13;;;;;;;8.07;3.05;;;;;;;;;;5028874;28;20470;-60
2022/05/16 09:40:40;;;;;;;7.93;2.72;;;;;;;;;;5029268;28;20072;-60
2022/05/16 09:43:09;;;;;;;8.40;3.15;;;;;;;;;;5029025;28;20091;-60
2022/05/16 09:45:35;;;;;;;9.05;3.38;;;;;;;;;;5028623;28;20107;-60
2022/05/16 09:48:14;;;;;;;7.00;2.70;;;;;;;;;;5039644;28;20451;-60
2022/05/16 09:50:40;;;;;;;11.20;3.17;;;;;;;;;;5037654;28;20072;-60
2022/05/16 09:53:09;;;;;;;9.90;3.22;;;;;;;;;;5047364;28;20040;-60
2022/05/16 09:55:44;;;;;;;11.07;3.33;;;;;;;;;;5031757;28;20120;-60
2022/05/16 09:58:20;;;;;;;8.73;3.10;;;;;;;;;;5028901;28;20793;-61
2022/05/16 10:00:55;;;;;;;7.68;3.20;;;;;;;;;;5041080;28;20422;-61
2022/05/16 10:03:21;;;;;;;10.55;3.38;;;;;;;;;;5041165;28;20065;-60
2022/05/16 10:05:50;;;;;;;13.15;3.67;;;;;;;;;;5047259;28;20064;-60
2022/05/16 10:08:26;;;;;;;6.38;2.88;;;;;;;;;;5048040;28;20052;-61
2022/05/16 10:10:52;;;;;;;8.75;3.40;;;;;;;;;;5043253;28;20037;-61
2022/05/16 10:13:19;;;;;;;12.90;4.20;;;;;;;;;;5028939;28;20084;-61
2022/05/16 10:15:46;;;;;;;9.85;3.53;;;;;;;;;;5028934;28;20042;-61
2022/05/16 10:18:16;;;;;;;8.98;3.80;;;;;;;;;;5028784;28;20111;-61
2022/05/16 10:20:46;;;;;;;6.53;3.33;;;;;;;;;;5029036;28;21088;-61
2022/05/16 10:23:35;;;;;;;16.00;3.92;;;;;;;;;;5027428;28;20492;-61
2022/05/16 10:26:06;;;;;;;9.38;3.00;;;;;;;;;;5027153;28;20091;-60
2022/05/16 10:28:37;;;;;;;9.98;2.97;;;;;;;;;;5029815;28;20399;-60
2022/05/16 10:34:01;;;;;;;10.02;3.15;;;;;;;;;;5011814;28;20056;-60
2022/05/16 10:36:28;;;;;;;10.10;3.60;;;;;;;;;;5028720;28;20064;-60
2022/05/16 10:38:58;;;;;;;13.15;3.03;;;;;;;;;;5028634;28;20466;-60
2022/05/16 10:41:27;;;;;;;11.63;3.97;;;;;;;;;;5028481;28;20041;-60
2022/05/16 10:43:56;;;;;;;10.38;3.38;;;;;;;;;;5028409;28;20069;-60
2022/05/16 10:46:25;;;;;;;8.10;3.00;;;;;;;;;;5028454;28;20050;-60
2022/05/16 10:48:53;;;;;;;7.18;2.70;;;;;;;;;;5028570;28;20591;-61
2022/05/16 10:51:27;;;;;;;8.98;2.33;;;;;;;;;;5028478;28;20080;-60
2022/05/16 10:53:53;;;;;;;9.52;3.20;;;;;;;;;;5028712;28;20045;-60
2022/05/16 10:56:30;;;;;;;9.75;3.35;;;;;;;;;;5044062;28;20392;-60
2022/05/16 10:59:03;;;;;;;9.68;3.50;;;;;;;;;;5048043;28;20041;-60
2022/05/16 11:01:32;;;;;;;12.63;3.67;;;;;;;;;;5048473;28;20045;-60
2022/05/16 11:04:17;;;;;;;8.90;3.80;;;;;;;;;;5037115;28;20538;-60
2022/05/16 11:07:01;;;;;;;8.15;3.20;;;;;;;;;;5028080;28;20053;-60
2022/05/16 11:09:36;;;;;;;11.10;3.92;;;;;;;;;;5026986;28;20076;-60
2022/05/16 11:12:05;;;;;;;8.20;3.30;;;;;;;;;;5028002;28;20439;-60
2022/05/16 11:14:49;;;;;;;12.50;3.08;;;;;;;;;;5028005;28;20144;-60
2022/05/16 11:17:15;;;;;;;7.80;2.75;;;;;;;;;;5027786;28;20068;-60
2022/05/16 11:20:00;;;;;;;13.63;3.17;;;;;;;;;;5046838;28;20048;-60
2022/05/16 11:22:28;;;;;;;10.98;3.20;;;;;;;;;;5050679;28;20393;-60
2022/05/16 11:25:12;;;;;;;6.90;2.83;;;;;;;;;;5050931;28;20096;-60
2022/05/16 11:27:52;;;;;;;8.05;3.38;;;;;;;;;;5051441;28;20078;-60
2022/05/16 11:30:25;;;;;;;9.02;3.70;;;;;;;;;;5047901;28;20056;-60
2022/05/16 11:33:03;;;;;;;8.38;3.63;;;;;;;;;;5065587;28;20102;-60
2022/05/16 11:35:40;;;;;;;5.82;2.85;;;;;;;;;;5067777;28;20094;-60
2022/05/16 11:38:06;;;;;;;13.90;3.95;;;;;;;;;;5063406;28;20854;-60
2022/05/16 11:40:35;;;;;;;6.70;2.63;;;;;;;;;;5050035;28;20124;-60
2022/05/16 11:43:04;;;;;;;9.48;3.28;;;;;;;;;;5055487;28;20520;-60
2022/05/16 11:45:42;;;;;;;8.18;2.95;;;;;;;;;;5051502;28;20080;-60
2022/05/16 11:48:11;;;;;;;6.63;3.22;;;;;;;;;;5042593;28;20045;-60
2022/05/16 11:50:41;;;;;;;10.55;3.10;;;;;;;;;;5071277;28;20055;-60
2022/05/16 11:53:28;;;;;;;8.00;2.70;;;;;;;;;;5069958;28;20055;-60
2022/05/16 12:01:30;;;;;;;13.02;2.95;;;;;;;;;;5060958;28;20044;-60
2022/05/16 12:04:13;;;;;;;7.50;3.13;;;;;;;;;;5063354;28;20048;-60
2022/05/16 12:06:50;;;;;;;13.23;3.58;;;;;;;;;;5046349;28;20055;-60
2022/05/16 12:09:19;;;;;;;8.63;3.08;;;;;;;;;;5038827;28;20438;-60
2022/05/16 12:11:53;;;;;;;9.50;3.30;;;;;;;;;;5040428;28;20048;-60
2022/05/16 12:14:25;;;;;;;9.65;3.00;;;;;;;;;;5040417;28;20075;-60
2022/05/16 12:16:53;;;;;;;8.55;4.40;;;;;;;;;;5043962;28;20107;-61
2022/05/16 12:19:29;;;;;;;9.52;3.03;;;;;;;;;;5044071;28;20053;-61
2022/05/16 12:22:03;;;;;;;9.05;3.05;;;;;;;;;;5040400;28;20056;-61
2022/05/16 12:24:31;;;;;;;9.60;3.42;;;;;;;;;;5038489;28;20128;-61
2022/05/16 12:26:59;;;;;;;8.88;3.38;;;;;;;;;;5037362;28;20049;-61
2022/05/16 12:29:38;;;;;;;9.80;3.30;;;;;;;;;;5037979;28;20107;-61
2022/05/16 12:32:05;;;;;;;7.13;3.53;;;;;;;;;;5038208;28;20053;-61
2022/05/16 12:34:34;;;;;;;6.15;3.05;;;;;;;;;;5041199;28;20041;-61
2022/05/16 12:37:01;;;;;;;6.75;2.72;;;;;;;;;;5043113;28;20056;-61
2022/05/16 12:39:43;;;;;;;8.13;3.40;;;;;;;;;;5037279;28;20052;-61
2022/05/16 12:42:28;;;;;;;6.75;3.05;;;;;;;;;;5035407;28;20496;-61
2022/05/16 12:44:54;;;;;;;6.45;2.70;;;;;;;;;;5038769;28;20057;-61
2022/05/16 12:47:35;;;;;;;6.90;3.15;;;;;;;;;;5040847;28;20053;-61
2022/05/16 12:50:11;;;;;;;8.65;3.17;;;;;;;;;;5046067;28;20124;-61
2022/05/16 12:52:46;;;;;;;11.00;3.67;;;;;;;;;;5035990;28;20045;-61
2022/05/16 12:55:31;;;;;;;11.70;4.50;;;;;;;;;;5039420;28;20048;-61
2022/05/16 12:58:05;;;;;;;10.82;4.25;;;;;;;;;;5039688;28;20531;-61
2022/05/16 13:00:40;;;;;;;9.43;3.72;;;;;;;;;;5034324;28;20044;-61
2022/05/16 13:03:09;;;;;;;7.93;4.60;;;;;;;;;;5032251;28;20107;-61
2022/05/16 13:05:45;;;;;;;10.55;5.22;;;;;;;;;;5035681;28;20079;-61
2022/05/16 13:08:26;;;;;;;9.63;6.22;;;;;;;;;;5038773;28;20041;-61
2022/05/16 13:11:10;;;;;;;12.35;5.82;;;;;;;;;;5040723;28;20033;-61
2022/05/16 13:13:56;;;;;;;12.07;6.55;;;;;;;;;;5040472;28;20046;-61
2022/05/16 13:16:30;;;;;;;11.75;6.28;;;;;;;;;;5040970;28;20064;-61
2022/05/16 13:18:58;;;;;;;9.23;5.80;;;;;;;;;;5042422;28;20435;-61
2022/05/16 13:21:33;;;;;;;11.55;6.20;;;;;;;;;;5042169;28;20084;-61
2022/05/16 13:23:59;;;;;;;11.52;6.68;;;;;;;;;;5042218;28;20790;-61
2022/05/16 13:29:23;;;;;;;10.65;5.68;;;;;;;;;;5068351;28;20109;-61
2022/05/16 13:31:52;;;;;;;8.38;7.07;;;;;;;;;;5057684;28;20515;-62
2022/05/16 13:34:35;;;;;;;8.68;6.00;;;;;;;;;;5058978;28;20068;-61
2022/05/16 13:37:02;;;;;;;11.60;6.50;;;;;;;;;;5059412;28;20095;-61
2022/05/16 13:39:33;;;;;;;7.93;5.88;;;;;;;;;;5049772;28;20482;-62
2022/05/16 13:42:01;;;;;;;10.73;7.25;;;;;;;;;;5053501;28;20048;-61
2022/05/16 13:44:37;;;;;;;9.95;6.78;;;;;;;;;;5033220;28;20053;-62
2022/05/16 13:47:04;;;;;;;10.23;6.47;;;;;;;;;;5041220;28;20345;-62
2022/05/16 13:49:32;;;;;;;10.00;6.57;;;;;;;;;;5046166;28;20048;-61
2022/05/16 13:51:59;;;;;;;13.23;7.63;;;;;;;;;;5048685;28;20052;-61
2022/05/16 13:54:30;;;;;;;13.57;8.93;;;;;;;;;;5047465;28;20098;-61
2022/05/16 13:56:58;;;;;;;11.73;7.97;;;;;;;;;;5044733;28;20539;-61
2022/05/16 13:59:25;;;;;;;17.63;10.75;;;;;;;;;;5039970;28;20045;-61
2022/05/16 14:01:53;;;;;;;15.23;9.73;;;;;;;;;;5041100;28;20041;-61
2022/05/16 14:04:22;;;;;;;12.90;8.35;;;;;;;;;;5040430;28;20044;-61
2022/05/16 14:06:51;;;;;;;12.65;9.27;;;;;;;;;;5036468;28;20046;-61
2022/05/16 14:09:22;;;;;;;13.68;9.27;;;;;;;;;;5036704;28;20037;-61
2022/05/16 14:11:49;;;;;;;12.43;8.32;;;;;;;;;;5038457;28;20483;-61
2022/05/16 14:14:16;;;;;;;9.80;7.72;;;;;;;;;;5039077;28;20640;-61
2022/05/16 14:16:48;;;;;;;19.08;8.82;;;;;;;;;;5043034;28;20041;-61
2022/05/16 14:19:14;;;;;;;12.13;7.57;;;;;;;;;;5068602;28;20897;-61
2022/05/16 14:21:51;;;;;;;15.40;7.90;;;;;;;;;;5065025;28;20068;-61
2022/05/16 14:24:20;;;;;;;14.48;7.35;;;;;;;;;;5066534;28;20498;-61
2022/05/16 14:26:51;;;;;;;11.18;7.70;;;;;;;;;;5068078;28;20044;-61
2022/05/16 14:29:20;;;;;;;14.02;8.85;;;;;;;;;;5068137;28;20037;-61
2022/05/16 14:31:47;;;;;;;17.13;9.02;;;;;;;;;;5068543;28;20059;-61
2022/05/16 14:34:25;;;;;;;15.52;8.57;;;;;;;;;;5068352;28;20066;-61
2022/05/16 14:36:53;;;;;;;13.40;8.43;;;;;;;;;;5067908;28;20063;-61
2022/05/16 14:39:21;;;;;;;16.20;9.05;;;;;;;;;;5068488;28;20186;-61
2022/05/16 14:41:52;;;;;;;14.05;9.00;;;;;;;;;;5068555;28;20124;-61
2022/05/16 14:44:21;;;;;;;27.27;10.93;;;;;;;;;;5066805;28;20055;-61
2022/05/16 14:46:57;;;;;;;15.40;9.95;;;;;;;;;;5068097;28;20041;-61
2022/05/16 14:49:23;;;;;;;16.08;10.07;;;;;;;;;;5067698;28;20064;-60
2022/05/16 14:51:49;;;;;;;23.17;11.73;;;;;;;;;;5068070;28;20041;-61
2022/05/16 14:54:24;;;;;;;20.95;15.27;;;;;;;;;;5068697;28;20084;-61
2022/05/16 14:56:51;;;;;;;22.27;15.13;;;;;;;;;;5072157;28;20456;-61
2022/05/16 14:59:17;;;;;;;22.65;15.75;;;;;;;;;;5072239;28;20521;-61
2022/05/16 15:04:27;;;;;;;28.33;20.67;;;;;;;;;;5071823;28;20088;-60
2022/05/16 15:06:53;;;;;;;28.92;20.50;;;;;;;;;;5072292;28;20230;-60
2022/05/16 15:09:21;;;;;;;31.77;18.53;;;;;;;;;;5071962;28;20123;-60
2022/05/16 15:11:52;;;;;;;24.93;17.20;;;;;;;;;;5070618;28;20044;-60
2022/05/16 15:14:19;;;;;;;20.57;14.23;;;;;;;;;;5071497;28;20051;-60
2022/05/16 15:16:45;;;;;;;21.03;14.17;;;;;;;;;;5071878;28;20037;-60
2022/05/16 15:19:12;;;;;;;19.40;13.50;;;;;;;;;;5071191;28;20140;-60
2022/05/16 15:21:39;;;;;;;20.93;14.33;;;;;;;;;;5071918;28;20048;-60
2022/05/16 15:24:07;;;;;;;22.07;16.03;;;;;;;;;;5071099;28;20135;-60
2022/05/16 15:26:33;;;;;;;19.30;15.07;;;;;;;;;;5071288;28;20448;-61